Royal Prince — WCX8037 — position and weather

sailwx.info

Track history (hours):
 
Tides and Currents Weather Stations Pressure Air Temp Water Temp Dewpoint Dewpoint Depression Visibility Wind Speed Wind Dir Waves Ship Positions

Royal Prince

Owner: Golden Gate Scenic Steamship Corp, SAN FRANCISCO, CA. More information available from US FCC via Universal Licensing System and Coast Guard Vessel Documentation Center.

Last reported at 2017-May-24 03:14 UTC. Time now 2017-May-24 17:41 UTC.
Position N 37°49' W 122°25'.

; draft 3 m.

Type: Passenger vessel. MMSI: 366975760.

Date/timePositionNaut miles runAvg speedWind from/ knotsBaromVisibWave heightAir tempDewpointWater temp
2017-May-24 03:14N 37°49' W 122°25'0 0.0
2017-May-24 03:00N 37°49' W 122°25'3 6.3
2017-May-24 02:30N 37°49' W 122°29'3 5.8
2017-May-24 02:00N 37°52' W 122°29'3 6.6
2017-May-24 01:30N 37°52' W 122°25'3 6.3
2017-May-24 01:00N 37°49' W 122°25'0 0.0
2017-May-24 00:30N 37°49' W 122°25'0 0.0
2017-May-24 00:00N 37°49' W 122°25'0 0.0
2017-May-23 23:30N 37°49' W 122°25'0 0.0
2017-May-23 23:00N 37°49' W 122°25'1 1.8
2017-May-23 22:30N 37°48' W 122°24'2 3.1
2017-May-23 22:00N 37°50' W 122°25'2 3.2
2017-May-23 21:30N 37°49' W 122°27'2 3.3
2017-May-23 21:00N 37°49' W 122°25'1 2.8
2017-May-23 20:30N 37°48' W 122°23'4 7.9
2017-May-23 20:00N 37°49' W 122°28'3 5.1
2017-May-23 19:30N 37°49' W 122°25'0 0.0
2017-May-23 03:26N 37°49' W 122°25'0 0.0
2017-May-23 03:00N 37°49' W 122°25'3 6.7
2017-May-23 02:30N 37°49' W 122°29'3 5.1
2017-May-23 02:00N 37°52' W 122°29'3 6.2
2017-May-23 01:30N 37°51' W 122°25'3 5.2
2017-May-23 01:00N 37°49' W 122°25'0 0.0
2017-May-23 00:30N 37°49' W 122°25'0 0.0
2017-May-23 00:00N 37°49' W 122°25'0 0.0
2017-May-22 23:30N 37°49' W 122°25'0 0.0
2017-May-22 23:00N 37°49' W 122°25'1 1.3
2017-May-22 22:30N 37°49' W 122°24'1 2.4
2017-May-22 22:00N 37°50' W 122°25'2 3.5
2017-May-22 21:30N 37°49' W 122°27'2 3.4
2017-May-22 21:00N 37°49' W 122°25'2 3.6
2017-May-22 20:30N 37°48' W 122°23'4 7.7
2017-May-22 20:00N 37°50' W 122°27'2 4.2
2017-May-22 19:30N 37°49' W 122°25'0 0.0
2017-May-22 01:05N 37°49' W 122°25'0 0.1
2017-May-22 01:00N 37°49' W 122°25'2 4.4
2017-May-22 00:30N 37°50' W 122°27'2 4.4
2017-May-22 00:00N 37°49' W 122°25'1 2.2
2017-May-21 23:30N 37°50' W 122°25'1 2.9
2017-May-21 23:00N 37°49' W 122°27'1 2.9
2017-May-21 22:30N 37°49' W 122°25'3 5.8
2017-May-21 22:00N 37°49' W 122°28'3 5.8
2017-May-21 21:30N 37°49' W 122°25'1 2.3
2017-May-21 21:00N 37°50' W 122°25'2 3.3
2017-May-21 20:30N 37°49' W 122°27'2 3.5
2017-May-21 20:00N 37°49' W 122°25'0 0.0
2017-May-21 19:30N 37°49' W 122°25'2 3.8
2017-May-21 19:00N 37°50' W 122°27'2 3.6
2017-May-21 18:30N 37°49' W 122°25'0 0.4
2017-May-21 18:00N 37°49' W 122°25'3 6.3
2017-May-21 17:30N 37°49' W 122°29'3 6.1
2017-May-21 17:00N 37°49' W 122°25'0 0.0
2017-May-21 04:05N 37°49' W 122°25'0 0.0
2017-May-21 04:01N 37°49' W 122°25'1 2.5
2017-May-21 03:31N 37°50' W 122°25'3 5.4
2017-May-21 03:00N 37°51' W 122°28'3 5.6
2017-May-21 02:31N 37°52' W 122°25'3 6.6
2017-May-21 02:00N 37°49' W 122°25'0 0.0
2017-May-21 01:30N 37°49' W 122°25'0 0.0
2017-May-21 01:00N 37°49' W 122°25'1 3.0
2017-May-21 00:30N 37°48' W 122°23'3 5.4
2017-May-20 23:59N 37°50' W 122°26'1 2.2
2017-May-20 23:30N 37°49' W 122°26'1 1.6
2017-May-20 23:00N 37°49' W 122°25'3 5.3
2017-May-20 22:30N 37°50' W 122°28'3 5.3
2017-May-20 22:00N 37°49' W 122°25'0 0.9
2017-May-20 21:30N 37°49' W 122°24'3 5.9
2017-May-20 21:00N 37°49' W 122°28'3 5.2
2017-May-20 20:30N 37°49' W 122°25'0 0.0
2017-May-20 20:00N 37°49' W 122°25'1 1.9
2017-May-20 19:30N 37°50' W 122°25'2 3.7
2017-May-20 19:00N 37°49' W 122°27'2 3.9
2017-May-20 18:30N 37°49' W 122°25'2 4.0
2017-May-20 18:00N 37°49' W 122°27'2 3.9
2017-May-20 17:30N 37°49' W 122°25'0 0.0
2017-May-20 17:00N 37°49' W 122°25'0 0.0
2017-May-20 01:07N 37°49' W 122°25'0 0.0
2017-May-20 01:00N 37°49' W 122°25'2 4.7
2017-May-20 00:30N 37°49' W 122°28'2 4.7
2017-May-20 00:00N 37°49' W 122°25'1 2.5
2017-May-19 23:30N 37°50' W 122°25'1 2.3
2017-May-19 23:00N 37°49' W 122°26'1 1.9
2017-May-19 22:30N 37°49' W 122°25'3 5.2
2017-May-19 22:00N 37°49' W 122°28'3 5.1
2017-May-19 21:30N 37°49' W 122°25'1 1.4
2017-May-19 21:00N 37°49' W 122°25'2 4.8
2017-May-19 20:30N 37°49' W 122°28'2 4.3
2017-May-19 20:00N 37°49' W 122°25'0 0.0
2017-May-19 19:30N 37°49' W 122°25'1 2.9
2017-May-19 19:00N 37°50' W 122°26'1 1.9
2017-May-19 18:30N 37°49' W 122°26'1 1.9
2017-May-19 18:00N 37°49' W 122°25'2 4.8
2017-May-19 17:30N 37°49' W 122°28'2 4.8
2017-May-19 17:00N 37°49' W 122°25'0 0.0
2017-May-19 13:46N 37°49' W 122°25'0 0.0
2017-May-19 01:29N 37°49' W 122°25'0 0.7
2017-May-19 01:00N 37°49' W 122°25'1 2.0
2017-May-19 00:30N 37°50' W 122°25'2 3.1
2017-May-19 00:00N 37°49' W 122°27'4 7.1
2017-May-18 23:30N 37°47' W 122°23'1 1.2
2017-May-18 23:00N 37°48' W 122°24'1 2.0
2017-May-18 22:30N 37°49' W 122°24'1 1.5
2017-May-18 22:00N 37°49' W 122°25'0 0.0
2017-May-18 21:30N 37°49' W 122°25'0 0.0
2017-May-18 21:00N 37°49' W 122°25'0 0.0
2017-May-18 20:30N 37°49' W 122°25'0 0.0
2017-May-18 20:00N 37°49' W 122°25'0 0.0
2017-May-18 19:30N 37°49' W 122°25'1 2.2
2017-May-18 19:00N 37°50' W 122°25'1 2.8
2017-May-18 18:30N 37°49' W 122°27'1 2.9
2017-May-18 18:00N 37°49' W 122°25'3 5.3
2017-May-18 17:30N 37°49' W 122°28'3 5.3
2017-May-18 17:00N 37°49' W 122°25'0 0.0
2017-May-18 16:30N 37°49' W 122°25'0 0.0
2017-May-18 16:00N 37°49' W 122°25'0 0.0
2017-May-18 15:30N 37°49' W 122°25'0 0.0
2017-May-18 15:00N 37°49' W 122°25'0 0.0
2017-May-18 01:13N 37°49' W 122°25'0 0.0
2017-May-18 01:00N 37°49' W 122°25'3 5.4
2017-May-18 00:30N 37°49' W 122°28'3 5.4
2017-May-18 00:01N 37°49' W 122°25'1 2.3
2017-May-17 23:30N 37°50' W 122°25'1 2.6
2017-May-17 23:00N 37°49' W 122°26'1 2.4
2017-May-17 22:31N 37°49' W 122°25'3 5.4
2017-May-17 22:00N 37°49' W 122°28'3 5.4
2017-May-17 21:30N 37°49' W 122°25'1 1.1
2017-May-17 21:00N 37°49' W 122°24'3 6.3
2017-May-17 20:31N 37°49' W 122°28'3 5.3
2017-May-17 20:00N 37°49' W 122°25'0 0.0
2017-May-17 19:30N 37°49' W 122°25'1 2.7
2017-May-17 19:01N 37°50' W 122°26'1 2.1
2017-May-17 18:31N 37°49' W 122°26'1 1.7
2017-May-17 18:01N 37°49' W 122°25'3 5.7
2017-May-17 17:31N 37°49' W 122°28'3 5.6
2017-May-17 17:00N 37°49' W 122°25'0 0.0
2017-May-17 16:30N 37°49' W 122°25'0 0.0
2017-May-17 01:05N 37°49' W 122°25'0 0.0
2017-May-17 01:00N 37°49' W 122°25'2 4.6
2017-May-17 00:30N 37°50' W 122°28'2 4.5
2017-May-17 00:00N 37°49' W 122°25'1 2.2
2017-May-16 23:30N 37°50' W 122°25'1 2.4
2017-May-16 23:00N 37°49' W 122°26'1 2.2
2017-May-16 22:30N 37°49' W 122°25'3 6.0
2017-May-16 22:00N 37°49' W 122°29'3 6.0
2017-May-16 21:30N 37°49' W 122°25'1 1.4
2017-May-16 21:00N 37°49' W 122°24'2 4.8
2017-May-16 20:30N 37°49' W 122°27'2 4.1
2017-May-16 20:00N 37°49' W 122°25'0 0.0
2017-May-16 19:30N 37°49' W 122°25'1 2.0
2017-May-16 19:00N 37°50' W 122°25'1 2.8
2017-May-16 18:30N 37°49' W 122°27'1 2.9
2017-May-16 18:00N 37°49' W 122°25'3 5.1
2017-May-16 17:30N 37°49' W 122°28'3 5.0
2017-May-16 17:00N 37°49' W 122°25'0 0.0
2017-May-16 01:04N 37°49' W 122°25'0 0.1
2017-May-16 01:00N 37°49' W 122°25'3 5.5
2017-May-16 00:30N 37°49' W 122°28'3 5.5
2017-May-16 00:00N 37°49' W 122°25'1 1.7
2017-May-15 23:30N 37°49' W 122°25'1 2.9
2017-May-15 23:00N 37°49' W 122°27'2 3.0
2017-May-15 22:30N 37°49' W 122°25'2 4.2
2017-May-15 22:00N 37°50' W 122°27'2 4.2
2017-May-15 21:31N 37°49' W 122°25'0 1.0
2017-May-15 21:01N 37°49' W 122°24'3 5.5
2017-May-15 20:31N 37°49' W 122°28'2 4.8
2017-May-15 20:01N 37°49' W 122°25'0 0.0
2017-May-15 19:30N 37°49' W 122°25'1 2.2
2017-May-15 19:00N 37°50' W 122°25'1 2.3
2017-May-15 18:30N 37°49' W 122°26'1 2.5
2017-May-15 18:00N 37°49' W 122°25'3 5.1
2017-May-15 17:30N 37°49' W 122°28'3 5.1
2017-May-15 17:00N 37°49' W 122°25'0 0.0
2017-May-15 01:17N 37°49' W 122°25'0 0.4
2017-May-15 01:00N 37°49' W 122°25'3 5.8
2017-May-15 00:30N 37°49' W 122°29'3 5.8
2017-May-15 00:00N 37°49' W 122°25'1 2.6
2017-May-14 23:30N 37°50' W 122°25'1 2.0
2017-May-14 23:00N 37°49' W 122°26'1 1.6
2017-May-14 22:30N 37°49' W 122°25'3 6.0
2017-May-14 22:00N 37°49' W 122°29'3 6.1
2017-May-14 21:30N 37°49' W 122°25'1 1.2
2017-May-14 21:00N 37°49' W 122°24'2 4.6
2017-May-14 20:30N 37°49' W 122°27'2 4.0
2017-May-14 20:00N 37°49' W 122°25'0 0.0
2017-May-14 19:30N 37°49' W 122°25'1 1.7
2017-May-14 19:00N 37°49' W 122°25'2 3.4
2017-May-14 18:30N 37°49' W 122°27'2 3.6
2017-May-14 18:00N 37°49' W 122°25'3 5.3
2017-May-14 17:30N 37°49' W 122°28'3 5.2
2017-May-14 17:00N 37°49' W 122°25'  
Track history (hours):
 
Tides and Currents Weather Stations Pressure Air Temp Water Temp Dewpoint Dewpoint Depression Visibility Wind Speed Wind Dir Waves Ship Positions

Royal Prince

Owner: Golden Gate Scenic Steamship Corp, SAN FRANCISCO, CA. More information available from US FCC via Universal Licensing System and Coast Guard Vessel Documentation Center.

Last reported at 2017-May-24 03:14 UTC. Time now 2017-May-24 17:41 UTC.
Position N 37°49' W 122°25'.

; draft 3 m.

Type: Passenger vessel. MMSI: 366975760.

Date/timePositionNaut miles runAvg speedWind from/ knotsBaromVisibWave heightAir tempDewpointWater temp
2017-May-24 03:14N 37°49' W 122°25'0 0.0
2017-May-24 03:00N 37°49' W 122°25'3 6.3
2017-May-24 02:30N 37°49' W 122°29'3 5.8
2017-May-24 02:00N 37°52' W 122°29'3 6.6
2017-May-24 01:30N 37°52' W 122°25'3 6.3
2017-May-24 01:00N 37°49' W 122°25'0 0.0
2017-May-24 00:30N 37°49' W 122°25'0 0.0
2017-May-24 00:00N 37°49' W 122°25'0 0.0
2017-May-23 23:30N 37°49' W 122°25'0 0.0
2017-May-23 23:00N 37°49' W 122°25'1 1.8
2017-May-23 22:30N 37°48' W 122°24'2 3.1
2017-May-23 22:00N 37°50' W 122°25'2 3.2
2017-May-23 21:30N 37°49' W 122°27'2 3.3
2017-May-23 21:00N 37°49' W 122°25'1 2.8
2017-May-23 20:30N 37°48' W 122°23'4 7.9
2017-May-23 20:00N 37°49' W 122°28'3 5.1
2017-May-23 19:30N 37°49' W 122°25'0 0.0
2017-May-23 03:26N 37°49' W 122°25'0 0.0
2017-May-23 03:00N 37°49' W 122°25'3 6.7
2017-May-23 02:30N 37°49' W 122°29'3 5.1
2017-May-23 02:00N 37°52' W 122°29'3 6.2
2017-May-23 01:30N 37°51' W 122°25'3 5.2
2017-May-23 01:00N 37°49' W 122°25'0 0.0
2017-May-23 00:30N 37°49' W 122°25'0 0.0
2017-May-23 00:00N 37°49' W 122°25'0 0.0
2017-May-22 23:30N 37°49' W 122°25'0 0.0
2017-May-22 23:00N 37°49' W 122°25'1 1.3
2017-May-22 22:30N 37°49' W 122°24'1 2.4
2017-May-22 22:00N 37°50' W 122°25'2 3.5
2017-May-22 21:30N 37°49' W 122°27'2 3.4
2017-May-22 21:00N 37°49' W 122°25'2 3.6
2017-May-22 20:30N 37°48' W 122°23'4 7.7
2017-May-22 20:00N 37°50' W 122°27'2 4.2
2017-May-22 19:30N 37°49' W 122°25'0 0.0
2017-May-22 01:05N 37°49' W 122°25'0 0.1
2017-May-22 01:00N 37°49' W 122°25'2 4.4
2017-May-22 00:30N 37°50' W 122°27'2 4.4
2017-May-22 00:00N 37°49' W 122°25'1 2.2
2017-May-21 23:30N 37°50' W 122°25'1 2.9
2017-May-21 23:00N 37°49' W 122°27'1 2.9
2017-May-21 22:30N 37°49' W 122°25'3 5.8
2017-May-21 22:00N 37°49' W 122°28'3 5.8
2017-May-21 21:30N 37°49' W 122°25'1 2.3
2017-May-21 21:00N 37°50' W 122°25'2 3.3
2017-May-21 20:30N 37°49' W 122°27'2 3.5
2017-May-21 20:00N 37°49' W 122°25'0 0.0
2017-May-21 19:30N 37°49' W 122°25'2 3.8
2017-May-21 19:00N 37°50' W 122°27'2 3.6
2017-May-21 18:30N 37°49' W 122°25'0 0.4
2017-May-21 18:00N 37°49' W 122°25'3 6.3
2017-May-21 17:30N 37°49' W 122°29'3 6.1
2017-May-21 17:00N 37°49' W 122°25'0 0.0
2017-May-21 04:05N 37°49' W 122°25'0 0.0
2017-May-21 04:01N 37°49' W 122°25'1 2.5
2017-May-21 03:31N 37°50' W 122°25'3 5.4
2017-May-21 03:00N 37°51' W 122°28'3 5.6
2017-May-21 02:31N 37°52' W 122°25'3 6.6
2017-May-21 02:00N 37°49' W 122°25'0 0.0
2017-May-21 01:30N 37°49' W 122°25'0 0.0
2017-May-21 01:00N 37°49' W 122°25'1 3.0
2017-May-21 00:30N 37°48' W 122°23'3 5.4
2017-May-20 23:59N 37°50' W 122°26'1 2.2
2017-May-20 23:30N 37°49' W 122°26'1 1.6
2017-May-20 23:00N 37°49' W 122°25'3 5.3
2017-May-20 22:30N 37°50' W 122°28'3 5.3
2017-May-20 22:00N 37°49' W 122°25'0 0.9
2017-May-20 21:30N 37°49' W 122°24'3 5.9
2017-May-20 21:00N 37°49' W 122°28'3 5.2
2017-May-20 20:30N 37°49' W 122°25'0 0.0
2017-May-20 20:00N 37°49' W 122°25'1 1.9
2017-May-20 19:30N 37°50' W 122°25'2 3.7
2017-May-20 19:00N 37°49' W 122°27'2 3.9
2017-May-20 18:30N 37°49' W 122°25'2 4.0
2017-May-20 18:00N 37°49' W 122°27'2 3.9
2017-May-20 17:30N 37°49' W 122°25'0 0.0
2017-May-20 17:00N 37°49' W 122°25'0 0.0
2017-May-20 01:07N 37°49' W 122°25'0 0.0
2017-May-20 01:00N 37°49' W 122°25'2 4.7
2017-May-20 00:30N 37°49' W 122°28'2 4.7
2017-May-20 00:00N 37°49' W 122°25'1 2.5
2017-May-19 23:30N 37°50' W 122°25'1 2.3
2017-May-19 23:00N 37°49' W 122°26'1 1.9
2017-May-19 22:30N 37°49' W 122°25'3 5.2
2017-May-19 22:00N 37°49' W 122°28'3 5.1
2017-May-19 21:30N 37°49' W 122°25'1 1.4
2017-May-19 21:00N 37°49' W 122°25'2 4.8
2017-May-19 20:30N 37°49' W 122°28'2 4.3
2017-May-19 20:00N 37°49' W 122°25'0 0.0
2017-May-19 19:30N 37°49' W 122°25'1 2.9
2017-May-19 19:00N 37°50' W 122°26'1 1.9
2017-May-19 18:30N 37°49' W 122°26'1 1.9
2017-May-19 18:00N 37°49' W 122°25'2 4.8
2017-May-19 17:30N 37°49' W 122°28'2 4.8
2017-May-19 17:00N 37°49' W 122°25'0 0.0
2017-May-19 13:46N 37°49' W 122°25'0 0.0
2017-May-19 01:29N 37°49' W 122°25'0 0.7
2017-May-19 01:00N 37°49' W 122°25'1 2.0
2017-May-19 00:30N 37°50' W 122°25'2 3.1
2017-May-19 00:00N 37°49' W 122°27'4 7.1
2017-May-18 23:30N 37°47' W 122°23'1 1.2
2017-May-18 23:00N 37°48' W 122°24'1 2.0
2017-May-18 22:30N 37°49' W 122°24'1 1.5
2017-May-18 22:00N 37°49' W 122°25'0 0.0
2017-May-18 21:30N 37°49' W 122°25'0 0.0
2017-May-18 21:00N 37°49' W 122°25'0 0.0
2017-May-18 20:30N 37°49' W 122°25'0 0.0
2017-May-18 20:00N 37°49' W 122°25'0 0.0
2017-May-18 19:30N 37°49' W 122°25'1 2.2
2017-May-18 19:00N 37°50' W 122°25'1 2.8
2017-May-18 18:30N 37°49' W 122°27'1 2.9
2017-May-18 18:00N 37°49' W 122°25'3 5.3
2017-May-18 17:30N 37°49' W 122°28'3 5.3
2017-May-18 17:00N 37°49' W 122°25'0 0.0
2017-May-18 16:30N 37°49' W 122°25'0 0.0
2017-May-18 16:00N 37°49' W 122°25'0 0.0
2017-May-18 15:30N 37°49' W 122°25'0 0.0
2017-May-18 15:00N 37°49' W 122°25'0 0.0
2017-May-18 01:13N 37°49' W 122°25'0 0.0
2017-May-18 01:00N 37°49' W 122°25'3 5.4
2017-May-18 00:30N 37°49' W 122°28'3 5.4
2017-May-18 00:01N 37°49' W 122°25'1 2.3
2017-May-17 23:30N 37°50' W 122°25'1 2.6
2017-May-17 23:00N 37°49' W 122°26'1 2.4
2017-May-17 22:31N 37°49' W 122°25'3 5.4
2017-May-17 22:00N 37°49' W 122°28'3 5.4
2017-May-17 21:30N 37°49' W 122°25'1 1.1
2017-May-17 21:00N 37°49' W 122°24'3 6.3
2017-May-17 20:31N 37°49' W 122°28'3 5.3
2017-May-17 20:00N 37°49' W 122°25'0 0.0
2017-May-17 19:30N 37°49' W 122°25'1 2.7
2017-May-17 19:01N 37°50' W 122°26'1 2.1
2017-May-17 18:31N 37°49' W 122°26'1 1.7
2017-May-17 18:01N 37°49' W 122°25'3 5.7
2017-May-17 17:31N 37°49' W 122°28'3 5.6
2017-May-17 17:00N 37°49' W 122°25'0 0.0
2017-May-17 16:30N 37°49' W 122°25'0 0.0
2017-May-17 01:05N 37°49' W 122°25'0 0.0
2017-May-17 01:00N 37°49' W 122°25'2 4.6
2017-May-17 00:30N 37°50' W 122°28'2 4.5
2017-May-17 00:00N 37°49' W 122°25'1 2.2
2017-May-16 23:30N 37°50' W 122°25'1 2.4
2017-May-16 23:00N 37°49' W 122°26'1 2.2
2017-May-16 22:30N 37°49' W 122°25'3 6.0
2017-May-16 22:00N 37°49' W 122°29'3 6.0
2017-May-16 21:30N 37°49' W 122°25'1 1.4
2017-May-16 21:00N 37°49' W 122°24'2 4.8
2017-May-16 20:30N 37°49' W 122°27'2 4.1
2017-May-16 20:00N 37°49' W 122°25'0 0.0
2017-May-16 19:30N 37°49' W 122°25'1 2.0
2017-May-16 19:00N 37°50' W 122°25'1 2.8
2017-May-16 18:30N 37°49' W 122°27'1 2.9
2017-May-16 18:00N 37°49' W 122°25'3 5.1
2017-May-16 17:30N 37°49' W 122°28'3 5.0
2017-May-16 17:00N 37°49' W 122°25'0 0.0
2017-May-16 01:04N 37°49' W 122°25'0 0.1
2017-May-16 01:00N 37°49' W 122°25'3 5.5
2017-May-16 00:30N 37°49' W 122°28'3 5.5
2017-May-16 00:00N 37°49' W 122°25'1 1.7
2017-May-15 23:30N 37°49' W 122°25'1 2.9
2017-May-15 23:00N 37°49' W 122°27'2 3.0
2017-May-15 22:30N 37°49' W 122°25'2 4.2
2017-May-15 22:00N 37°50' W 122°27'2 4.2
2017-May-15 21:31N 37°49' W 122°25'0 1.0
2017-May-15 21:01N 37°49' W 122°24'3 5.5
2017-May-15 20:31N 37°49' W 122°28'2 4.8
2017-May-15 20:01N 37°49' W 122°25'0 0.0
2017-May-15 19:30N 37°49' W 122°25'1 2.2
2017-May-15 19:00N 37°50' W 122°25'1 2.3
2017-May-15 18:30N 37°49' W 122°26'1 2.5
2017-May-15 18:00N 37°49' W 122°25'3 5.1
2017-May-15 17:30N 37°49' W 122°28'3 5.1
2017-May-15 17:00N 37°49' W 122°25'0 0.0
2017-May-15 01:17N 37°49' W 122°25'0 0.4
2017-May-15 01:00N 37°49' W 122°25'3 5.8
2017-May-15 00:30N 37°49' W 122°29'3 5.8
2017-May-15 00:00N 37°49' W 122°25'1 2.6
2017-May-14 23:30N 37°50' W 122°25'1 2.0
2017-May-14 23:00N 37°49' W 122°26'1 1.6
2017-May-14 22:30N 37°49' W 122°25'3 6.0
2017-May-14 22:00N 37°49' W 122°29'3 6.1
2017-May-14 21:30N 37°49' W 122°25'1 1.2
2017-May-14 21:00N 37°49' W 122°24'2 4.6
2017-May-14 20:30N 37°49' W 122°27'2 4.0
2017-May-14 20:00N 37°49' W 122°25'0 0.0
2017-May-14 19:30N 37°49' W 122°25'1 1.7
2017-May-14 19:00N 37°49' W 122°25'2 3.4
2017-May-14 18:30N 37°49' W 122°27'2 3.6
2017-May-14 18:00N 37°49' W 122°25'3 5.3
2017-May-14 17:30N 37°49' W 122°28'3 5.2
2017-May-14 17:00N 37°49' W 122°25'  

Dump ship's entire track history